Time;durP1;ratioP1;P1;durP2;ratioP2;P2;SDS_P1;SDS_P2;PMS_P1;PMS_P2;Temp;Humidity;BMP_temperature;BMP_pressure;BME280_temperature;BME280_humidity;BME280_pressure;Samples;Min_cycle;Max_cycle;Signal;HPM_P1;HPM_P2
2021/11/25 00:01:08;;;;;;;58.40;29.15;;;6.40;99.90;;;;;;4992663;28;20041;-47
2021/11/25 00:03:34;;;;;;;56.60;28.48;;;6.40;99.90;;;;;;4992894;28;20038;-46
2021/11/25 00:06:00;;;;;;;56.72;29.38;;;6.40;99.90;;;;;;4992373;28;20089;-46
2021/11/25 00:08:26;;;;;;;59.40;29.35;;;6.40;99.90;;;;;;4987003;28;20378;-45
2021/11/25 00:10:51;;;;;;;59.65;29.90;;;6.40;99.90;;;;;;4992596;28;20042;-46
2021/11/25 00:13:17;;;;;;;58.53;29.60;;;6.40;99.90;;;;;;4986285;28;20117;-45
2021/11/25 00:15:43;;;;;;;58.90;29.50;;;6.40;99.90;;;;;;4984634;28;20419;-46
2021/11/25 00:18:09;;;;;;;58.13;30.55;;;6.40;99.90;;;;;;4979545;28;20039;-45
2021/11/25 00:20:35;;;;;;;63.17;31.45;;;6.40;99.90;;;;;;4991933;28;20073;-46
2021/11/25 00:23:01;;;;;;;63.28;30.35;;;6.30;99.90;;;;;;4991504;28;20548;-47
2021/11/25 00:25:26;;;;;;;62.75;30.60;;;6.40;99.90;;;;;;4985944;28;20035;-47
2021/11/25 00:27:52;;;;;;;56.67;29.83;;;6.30;99.90;;;;;;4981850;28;20034;-45
2021/11/25 00:30:18;;;;;;;60.95;28.75;;;6.40;99.90;;;;;;4988315;28;20142;-44
2021/11/25 00:32:44;;;;;;;58.33;29.73;;;6.30;99.90;;;;;;4975149;28;20408;-45
2021/11/25 00:35:12;;;;;;;58.38;28.40;;;6.30;99.90;;;;;;4988295;28;20062;-46
2021/11/25 00:37:38;;;;;;;63.25;29.42;;;6.30;99.90;;;;;;4980622;28;20122;-48
2021/11/25 00:40:07;;;;;;;59.38;30.73;;;6.40;99.90;;;;;;4975912;28;20046;-47
2021/11/25 00:42:33;;;;;;;64.93;30.60;;;6.40;99.90;;;;;;4989748;28;20379;-45
2021/11/25 00:44:58;;;;;;;64.50;31.08;;;6.40;99.90;;;;;;4989406;28;20037;-45
2021/11/25 00:47:24;;;;;;;66.43;30.58;;;6.40;99.90;;;;;;4976794;28;20407;-46
2021/11/25 00:49:49;;;;;;;61.03;29.73;;;6.30;99.90;;;;;;4988690;28;20053;-48
2021/11/25 00:52:15;;;;;;;64.13;31.20;;;6.40;99.90;;;;;;4992405;28;20034;-45
2021/11/25 00:54:41;;;;;;;66.55;31.38;;;6.40;99.90;;;;;;4991729;28;20038;-45
2021/11/25 00:57:06;;;;;;;64.10;30.67;;;6.40;99.90;;;;;;4980918;28;20534;-45
2021/11/25 00:59:32;;;;;;;63.40;31.25;;;6.30;99.90;;;;;;4992398;28;20490;-46
2021/11/25 01:01:57;;;;;;;66.95;31.48;;;6.40;99.90;;;;;;4982084;28;20039;-45
2021/11/25 01:04:24;;;;;;;64.30;31.33;;;6.40;99.90;;;;;;4989746;28;20038;-46
2021/11/25 01:06:50;;;;;;;65.18;31.95;;;6.40;99.90;;;;;;4985628;28;20409;-46
2021/11/25 01:09:15;;;;;;;66.93;32.33;;;6.40;99.90;;;;;;4987726;28;20529;-46
2021/11/25 01:11:41;;;;;;;59.42;29.80;;;6.40;99.90;;;;;;4991863;28;20042;-46
2021/11/25 01:14:07;;;;;;;65.35;31.85;;;6.40;99.90;;;;;;4984957;28;20030;-45
2021/11/25 01:16:33;;;;;;;63.58;32.55;;;6.30;99.90;;;;;;5013579;22;20049;-82
2021/11/25 01:18:58;;;;;;;67.63;32.15;;;6.40;99.90;;;;;;5023081;28;20041;-83
2021/11/25 01:21:24;;;;;;;75.93;32.90;;;6.60;99.90;;;;;;4997881;28;20041;-82
2021/11/25 01:23:50;;;;;;;62.15;30.90;;;6.40;99.90;;;;;;5004669;28;20037;-82
2021/11/25 01:26:15;;;;;;;66.07;31.23;;;6.40;99.90;;;;;;5025310;28;20530;-82
2021/11/25 01:28:41;;;;;;;69.57;32.20;;;6.50;99.90;;;;;;5010053;28;20091;-83
2021/11/25 01:31:06;;;;;;;68.15;31.90;;;6.30;99.90;;;;;;5023025;28;20063;-83
2021/11/25 01:33:32;;;;;;;73.32;33.45;;;7.20;99.90;;;;;;5004358;28;20067;-83
2021/11/25 01:35:59;;;;;;;66.20;31.73;;;6.70;99.90;;;;;;5010995;28;20049;-83
2021/11/25 01:38:26;;;;;;;73.03;33.67;;;6.30;99.90;;;;;;5015126;28;20492;-82
2021/11/25 01:40:53;;;;;;;69.93;32.75;;;6.30;99.90;;;;;;5024533;28;20670;-83
2021/11/25 01:43:21;;;;;;;67.28;32.13;;;6.30;99.90;;;;;;5019508;28;20476;-83
2021/11/25 01:45:49;;;;;;;74.65;33.22;;;6.30;99.90;;;;;;5017193;28;20064;-82
2021/11/25 01:48:15;;;;;;;71.82;33.88;;;6.30;99.90;;;;;;5008041;28;20036;-82
2021/11/25 01:50:41;;;;;;;68.97;32.55;;;6.30;99.90;;;;;;5021228;28;20514;-83
2021/11/25 01:53:07;;;;;;;64.25;31.92;;;6.30;99.90;;;;;;5011645;28;20046;-82
2021/11/25 01:55:33;;;;;;;74.97;34.50;;;6.30;99.90;;;;;;5011327;28;20137;-82
2021/11/25 01:57:58;;;;;;;71.55;31.85;;;6.30;99.90;;;;;;5011145;28;20533;-82
2021/11/25 02:00:29;;;;;;;69.13;32.05;;;6.40;99.90;;;;;;5003423;28;20033;-81
2021/11/25 02:02:56;;;;;;;64.70;32.00;;;6.30;99.90;;;;;;5022143;28;20076;-82
2021/11/25 02:05:22;;;;;;;73.63;33.08;;;6.30;99.90;;;;;;4999266;28;20471;-82
2021/11/25 02:07:48;;;;;;;68.95;31.63;;;6.30;99.90;;;;;;5018464;28;20407;-82
2021/11/25 02:10:14;;;;;;;68.03;31.08;;;6.30;99.90;;;;;;5016614;28;20033;-82
2021/11/25 02:12:40;;;;;;;72.38;32.92;;;6.30;99.90;;;;;;5011529;28;20033;-82
2021/11/25 02:15:08;;;;;;;73.45;33.47;;;6.30;99.90;;;;;;5016958;28;20038;-82
2021/11/25 02:17:35;;;;;;;69.82;32.40;;;6.30;99.90;;;;;;5023313;28;20041;-82
2021/11/25 02:20:01;;;;;;;72.45;32.78;;;6.30;99.90;;;;;;5003523;28;20475;-82
2021/11/25 02:22:27;;;;;;;71.53;32.10;;;6.30;99.90;;;;;;5018585;28;20091;-82
2021/11/25 02:24:52;;;;;;;74.75;33.05;;;6.40;99.90;;;;;;5006398;28;20037;-82
2021/11/25 02:27:19;;;;;;;65.35;31.38;;;6.40;99.90;;;;;;5011520;28;20038;-82
2021/11/25 02:29:45;;;;;;;74.95;32.42;;;6.40;99.90;;;;;;5012867;28;20124;-82
2021/11/25 02:32:11;;;;;;;68.93;30.35;;;6.40;99.90;;;;;;5016618;28;20115;-82
2021/11/25 02:34:36;;;;;;;70.60;31.98;;;6.40;99.90;;;;;;5002992;28;20049;-82
2021/11/25 02:37:02;;;;;;;66.82;30.42;;;6.40;99.90;;;;;;5008823;28;20038;-83
2021/11/25 02:39:28;;;;;;;69.32;30.65;;;6.40;99.90;;;;;;5011883;28;20041;-82
2021/11/25 02:41:53;;;;;;;71.80;32.70;;;6.40;99.90;;;;;;5011500;28;20402;-82
2021/11/25 02:44:19;;;;;;;71.18;33.17;;;6.40;99.90;;;;;;5031620;28;20029;-82
2021/11/25 02:46:50;;;;;;;70.65;31.52;;;6.30;99.90;;;;;;5030412;28;20045;-82
2021/11/25 02:49:15;;;;;;;64.80;30.75;;;6.40;99.90;;;;;;5021524;28;20034;-83
2021/11/25 02:51:41;;;;;;;68.30;31.20;;;6.80;99.90;;;;;;5015854;28;20407;-83
2021/11/25 02:54:06;;;;;;;72.95;32.85;;;6.40;99.90;;;;;;5005063;28;20204;-83
2021/11/25 02:56:32;;;;;;;69.25;31.75;;;6.40;99.90;;;;;;5001995;28;20054;-83
2021/11/25 02:59:00;;;;;;;71.95;30.90;;;6.30;99.90;;;;;;5025510;28;20073;-83
2021/11/25 03:01:37;;;;;;;73.05;31.73;;;6.30;99.90;;;;;;5030248;28;20040;-83
2021/11/25 03:04:04;;;;;;;72.72;32.03;;;6.30;99.90;;;;;;5027558;28;20068;-83
2021/11/25 03:06:31;;;;;;;68.75;31.17;;;6.30;99.90;;;;;;5012332;28;20120;-83
2021/11/25 03:08:56;;;;;;;71.45;31.35;;;6.30;99.90;;;;;;5003031;28;20044;-83
2021/11/25 03:11:25;;;;;;;71.40;32.22;;;6.30;99.90;;;;;;5017912;28;20101;-83
2021/11/25 03:13:54;;;;;;;68.00;31.17;;;6.30;99.90;;;;;;5026285;28;20124;-83
2021/11/25 03:16:21;;;;;;;72.13;32.25;;;6.30;99.90;;;;;;5025984;28;20029;-83
2021/11/25 03:18:48;;;;;;;65.63;31.50;;;6.30;99.90;;;;;;5004632;28;20034;-83
2021/11/25 03:21:15;;;;;;;70.53;32.22;;;6.30;99.90;;;;;;5022408;28;20037;-83
2021/11/25 03:23:43;;;;;;;72.03;33.08;;;6.30;99.90;;;;;;5009605;28;20104;-83
2021/11/25 03:26:10;;;;;;;74.47;32.05;;;6.30;99.90;;;;;;5025919;28;20034;-83
2021/11/25 03:28:40;;;;;;;69.90;32.80;;;6.30;99.90;;;;;;5020509;28;20100;-82
2021/11/25 03:31:15;;;;;;;67.40;31.10;;;6.20;99.90;;;;;;5006170;28;20451;-82
2021/11/25 03:33:41;;;;;;;67.78;31.77;;;6.20;99.90;;;;;;5013949;28;20100;-82
2021/11/25 03:36:08;;;;;;;67.15;32.58;;;6.20;99.90;;;;;;5000151;28;20042;-82
2021/11/25 03:38:35;;;;;;;66.70;31.25;;;6.30;99.90;;;;;;5011261;28;20101;-83
2021/11/25 03:41:01;;;;;;;70.72;32.05;;;6.30;99.90;;;;;;5028580;28;20041;-82
2021/11/25 03:43:27;;;;;;;68.55;33.42;;;6.20;99.90;;;;;;5027968;28;20042;-83
2021/11/25 03:45:54;;;;;;;66.95;32.90;;;6.20;99.90;;;;;;5021370;28;20060;-83
2021/11/25 03:48:23;;;;;;;69.32;33.60;;;6.30;99.90;;;;;;5019770;22;20037;-49
2021/11/25 03:50:50;;;;;;;68.75;33.88;;;6.30;99.90;;;;;;5000801;28;20077;-49
2021/11/25 03:53:16;;;;;;;69.63;32.60;;;6.30;99.90;;;;;;5004135;28;20042;-50
2021/11/25 03:55:42;;;;;;;69.25;33.10;;;6.20;99.90;;;;;;5002544;28;20045;-50
2021/11/25 03:58:07;;;;;;;67.20;33.42;;;6.20;99.90;;;;;;4985409;28;20491;-47
2021/11/25 04:00:33;;;;;;;68.40;33.90;;;6.20;99.90;;;;;;4988349;28;20049;-46
2021/11/25 04:03:00;;;;;;;75.50;36.45;;;6.20;99.90;;;;;;4983515;28;20033;-46
2021/11/25 04:05:25;;;;;;;75.40;36.00;;;6.10;99.90;;;;;;4990025;28;20042;-49
2021/11/25 04:07:51;;;;;;;72.68;35.97;;;6.20;99.90;;;;;;4987295;28;20038;-48
2021/11/25 04:10:17;;;;;;;77.28;37.17;;;6.20;99.90;;;;;;4981464;28;20484;-47
2021/11/25 04:12:43;;;;;;;73.65;36.20;;;6.10;99.90;;;;;;4980619;28;20053;-46
2021/11/25 04:15:10;;;;;;;72.60;36.75;;;6.10;99.90;;;;;;4992487;28;20038;-49
2021/11/25 04:17:36;;;;;;;71.22;34.55;;;6.10;99.90;;;;;;4991410;28;20038;-46
2021/11/25 04:20:03;;;;;;;72.82;37.13;;;6.10;99.90;;;;;;4983384;28;20041;-49
2021/11/25 04:22:29;;;;;;;70.82;35.75;;;6.00;99.90;;;;;;4986819;28;20117;-47
2021/11/25 04:24:56;;;;;;;70.85;35.97;;;6.00;99.90;;;;;;4980620;28;20169;-49
2021/11/25 04:27:21;;;;;;;73.28;38.65;;;6.00;99.90;;;;;;4979966;28;20406;-47
2021/11/25 04:29:56;;;;;;;71.03;37.42;;;6.00;99.90;;;;;;4989588;28;20044;-46
2021/11/25 04:37:51;;;;;;;72.68;36.00;;;5.90;99.90;;;;;;4991977;28;20057;-48
2021/11/25 04:40:17;;;;;;;70.20;36.15;;;5.90;99.90;;;;;;4975179;28;20084;-47
2021/11/25 04:42:43;;;;;;;71.25;37.45;;;5.80;99.90;;;;;;4991663;28;20070;-51
2021/11/25 04:45:09;;;;;;;68.32;36.67;;;5.80;99.90;;;;;;4991509;28;20034;-50
2021/11/25 04:47:34;;;;;;;70.90;37.13;;;5.80;99.90;;;;;;4987500;28;20390;-50
2021/11/25 04:50:00;;;;;;;73.70;37.55;;;5.80;99.90;;;;;;4982232;28;20035;-47
2021/11/25 04:52:26;;;;;;;72.63;35.92;;;5.80;99.90;;;;;;4959218;28;20128;-51
2021/11/25 04:54:51;;;;;;;72.88;37.10;;;5.80;99.90;;;;;;4988323;28;20753;-49
2021/11/25 04:57:17;;;;;;;67.10;37.03;;;5.80;99.90;;;;;;4989295;28;20034;-46
2021/11/25 04:59:42;;;;;;;72.18;36.70;;;5.80;99.90;;;;;;4990192;28;20042;-48
2021/11/25 05:02:08;;;;;;;74.35;40.35;;;5.80;99.90;;;;;;4965713;28;20038;-50
2021/11/25 05:04:33;;;;;;;65.18;36.67;;;5.80;99.90;;;;;;4983704;28;20465;-47
2021/11/25 05:06:59;;;;;;;65.70;38.50;;;5.80;99.90;;;;;;4988999;28;20031;-50
2021/11/25 05:09:24;;;;;;;68.18;37.00;;;5.80;99.90;;;;;;4980367;28;20097;-49
2021/11/25 05:11:50;;;;;;;73.28;37.72;;;5.70;99.90;;;;;;4984775;28;20053;-49
2021/11/25 05:14:15;;;;;;;67.47;37.65;;;5.70;99.90;;;;;;4985155;28;20038;-50
2021/11/25 05:16:41;;;;;;;69.63;37.20;;;5.80;99.90;;;;;;4986853;28;20039;-49
2021/11/25 05:19:07;;;;;;;64.32;35.45;;;5.70;99.90;;;;;;4991154;28;20108;-46
2021/11/25 05:21:32;;;;;;;66.90;37.67;;;5.70;99.90;;;;;;4992133;28;20050;-47
2021/11/25 05:23:58;;;;;;;68.70;37.17;;;5.70;99.90;;;;;;4973724;28;20035;-46
2021/11/25 05:26:24;;;;;;;68.70;37.00;;;5.60;99.90;;;;;;4986580;28;20074;-49
2021/11/25 05:28:49;;;;;;;64.03;36.13;;;5.60;99.90;;;;;;4985646;28;20491;-47
2021/11/25 05:31:15;;;;;;;66.57;36.50;;;5.70;99.90;;;;;;4991461;28;20096;-50
2021/11/25 05:33:40;;;;;;;68.45;37.03;;;5.70;99.90;;;;;;4986557;28;20038;-49
2021/11/25 05:36:06;;;;;;;67.53;35.97;;;5.70;99.90;;;;;;4989960;28;20030;-50
2021/11/25 05:38:32;;;;;;;68.60;36.42;;;5.70;99.90;;;;;;4990741;28;20038;-52
2021/11/25 05:40:57;;;;;;;57.08;34.45;;;5.60;99.90;;;;;;4987957;28;20162;-48
2021/11/25 05:43:23;;;;;;;60.47;33.92;;;5.70;99.90;;;;;;4991824;28;20034;-46
2021/11/25 05:45:48;;;;;;;61.70;34.55;;;5.60;99.90;;;;;;4986043;28;20066;-47
2021/11/25 05:48:14;;;;;;;59.92;34.67;;;5.70;99.90;;;;;;4991272;28;20030;-46
2021/11/25 05:50:40;;;;;;;52.78;32.30;;;5.60;99.90;;;;;;4990936;28;20057;-47
2021/11/25 05:53:05;;;;;;;59.55;34.72;;;5.60;99.90;;;;;;4983172;28;20134;-46
2021/11/25 05:55:31;;;;;;;57.53;33.10;;;5.60;99.90;;;;;;4985455;28;20045;-47
2021/11/25 05:57:57;;;;;;;59.92;34.53;;;5.50;99.90;;;;;;4989242;28;20414;-47
2021/11/25 06:00:23;;;;;;;57.63;34.03;;;5.50;99.90;;;;;;4989846;28;20125;-47
2021/11/25 06:02:49;;;;;;;59.72;33.90;;;5.50;99.90;;;;;;4973823;28;20508;-46
2021/11/25 06:05:19;;;;;;;64.80;36.33;;;5.50;99.90;;;;;;4977361;28;20402;-47
2021/11/25 06:07:46;;;;;;;66.43;35.97;;;5.50;99.90;;;;;;4991253;28;20410;-48
2021/11/25 06:10:13;;;;;;;54.72;34.05;;;5.40;99.90;;;;;;4990962;28;20049;-47
2021/11/25 06:12:39;;;;;;;60.22;34.40;;;5.50;99.90;;;;;;4989991;28;20415;-47
2021/11/25 06:15:06;;;;;;;58.20;34.28;;;5.50;99.90;;;;;;4973850;28;20383;-47
2021/11/25 06:17:32;;;;;;;59.88;33.88;;;5.40;99.90;;;;;;4986585;28;20042;-47
2021/11/25 06:19:57;;;;;;;67.32;35.53;;;5.40;99.90;;;;;;4991637;28;20074;-46
2021/11/25 06:22:24;;;;;;;58.58;34.15;;;5.40;99.90;;;;;;4990671;28;20066;-49
2021/11/25 06:24:50;;;;;;;58.00;34.10;;;5.40;99.90;;;;;;4991333;28;20046;-47
2021/11/25 06:27:16;;;;;;;62.05;34.85;;;5.50;99.90;;;;;;4989136;28;20035;-46
2021/11/25 06:29:41;;;;;;;59.28;34.53;;;5.50;99.90;;;;;;4970288;28;20130;-46
2021/11/25 06:32:07;;;;;;;59.15;34.80;;;5.50;99.90;;;;;;4984184;28;20062;-49
2021/11/25 06:34:33;;;;;;;66.22;36.75;;;5.50;99.90;;;;;;4990065;28;20050;-47
2021/11/25 06:36:59;;;;;;;60.22;34.90;;;5.50;99.90;;;;;;4980016;28;20049;-47
2021/11/25 06:39:24;;;;;;;62.15;34.97;;;5.50;99.90;;;;;;4984313;28;20581;-46
2021/11/25 06:41:50;;;;;;;57.10;34.40;;;5.50;99.90;;;;;;4988279;28;20056;-48
2021/11/25 06:44:15;;;;;;;59.95;33.90;;;5.50;99.90;;;;;;4986967;28;20047;-48
2021/11/25 06:46:41;;;;;;;64.40;36.50;;;5.50;99.90;;;;;;4988347;28;20498;-48
2021/11/25 06:49:07;;;;;;;62.92;36.47;;;5.50;99.90;;;;;;4988176;28;20031;-48
2021/11/25 06:51:32;;;;;;;62.92;36.70;;;5.50;99.90;;;;;;4983900;28;20031;-47
2021/11/25 06:53:58;;;;;;;59.38;36.05;;;5.50;99.90;;;;;;4986916;28;20034;-47
2021/11/25 06:56:23;;;;;;;59.50;35.50;;;5.50;99.90;;;;;;4991886;28;20038;-47
2021/11/25 06:58:51;;;;;;;64.90;36.42;;;5.50;99.90;;;;;;4985892;28;20150;-47
2021/11/25 07:01:16;;;;;;;60.83;35.85;;;5.40;99.90;;;;;;4992205;28;20429;-47
2021/11/25 07:03:42;;;;;;;69.30;36.67;;;5.40;99.90;;;;;;4976465;28;20096;-47
2021/11/25 07:06:07;;;;;;;63.85;36.97;;;5.40;99.90;;;;;;4993817;28;20073;-47
2021/11/25 07:08:33;;;;;;;65.22;38.55;;;5.50;99.90;;;;;;4985801;28;20050;-46
2021/11/25 07:10:59;;;;;;;65.97;37.50;;;5.40;99.90;;;;;;4988101;28;20478;-47
2021/11/25 07:13:28;;;;;;;64.80;36.83;;;5.40;99.90;;;;;;4985242;28;20035;-50
2021/11/25 07:15:54;;;;;;;67.15;37.17;;;5.50;99.90;;;;;;4988568;28;20042;-48
2021/11/25 07:18:19;;;;;;;68.40;38.58;;;5.40;99.90;;;;;;4988769;28;20049;-47
2021/11/25 07:20:45;;;;;;;69.55;37.35;;;5.40;99.90;;;;;;4983400;28;20050;-47
2021/11/25 07:23:12;;;;;;;64.45;37.92;;;5.50;99.90;;;;;;4983887;28;20493;-48
2021/11/25 07:25:37;;;;;;;66.15;37.75;;;5.40;99.90;;;;;;4987342;28;20034;-47
2021/11/25 07:28:03;;;;;;;68.10;38.45;;;5.40;99.90;;;;;;4989569;28;20045;-48
2021/11/25 07:30:29;;;;;;;67.13;37.97;;;5.50;99.90;;;;;;4990449;28;20121;-47
2021/11/25 07:32:55;;;;;;;70.70;39.88;;;5.50;99.90;;;;;;4992362;28;20084;-47
2021/11/25 07:35:21;;;;;;;65.03;36.10;;;5.50;99.90;;;;;;4989205;28;20093;-49
2021/11/25 07:37:50;;;;;;;69.68;37.88;;;5.50;99.90;;;;;;4989948;28;20038;-47
2021/11/25 07:40:16;;;;;;;65.68;37.15;;;5.50;99.90;;;;;;4971120;28;20096;-48
2021/11/25 07:42:42;;;;;;;69.22;39.58;;;5.50;99.90;;;;;;4987695;28;20430;-48
2021/11/25 07:45:08;;;;;;;67.45;37.55;;;5.60;99.90;;;;;;4988869;28;20038;-47
2021/11/25 07:47:34;;;;;;;67.97;37.00;;;5.60;99.90;;;;;;4982751;28;20042;-46
2021/11/25 07:50:05;;;;;;;68.60;37.65;;;5.60;99.90;;;;;;4987098;28;20113;-46
2021/11/25 07:52:31;;;;;;;73.63;39.28;;;5.60;99.90;;;;;;4995263;28;20046;-48
2021/11/25 07:54:56;;;;;;;67.78;36.33;;;5.60;99.90;;;;;;4987700;28;20104;-50
2021/11/25 07:57:22;;;;;;;73.78;39.13;;;5.60;99.90;;;;;;4974709;28;20513;-51
2021/11/25 07:59:47;;;;;;;69.82;38.42;;;5.60;99.90;;;;;;4991723;28;20039;-48
2021/11/25 08:02:16;;;;;;;71.40;38.42;;;5.60;99.90;;;;;;4991040;28;20126;-47
2021/11/25 08:04:42;;;;;;;66.45;39.08;;;5.70;99.90;;;;;;4989393;28;20033;-47
2021/11/25 08:07:08;;;;;;;74.88;40.17;;;5.70;99.90;;;;;;4991636;28;20557;-48
2021/11/25 08:09:34;;;;;;;64.82;37.85;;;5.70;99.90;;;;;;4989115;28;20042;-48
2021/11/25 08:11:59;;;;;;;73.53;40.30;;;5.70;99.90;;;;;;4991066;28;20058;-47
2021/11/25 08:14:25;;;;;;;70.63;38.45;;;5.70;99.90;;;;;;4992362;28;20038;-47
2021/11/25 08:16:51;;;;;;;66.50;37.90;;;5.70;99.90;;;;;;4993240;28;20042;-47
2021/11/25 08:19:17;;;;;;;70.05;39.33;;;5.80;99.90;;;;;;4987152;28;20622;-51
2021/11/25 08:21:43;;;;;;;76.68;40.50;;;5.80;99.90;;;;;;4988399;28;20137;-48
2021/11/25 08:24:08;;;;;;;77.80;39.75;;;5.80;99.90;;;;;;4989522;28;20129;-49
2021/11/25 08:26:34;;;;;;;76.60;39.45;;;5.80;99.90;;;;;;4989338;28;20050;-47
2021/11/25 08:28:59;;;;;;;80.82;41.03;;;5.80;99.90;;;;;;4988955;28;20043;-48
2021/11/25 08:31:26;;;;;;;73.40;38.75;;;5.90;99.90;;;;;;4990252;28;20045;-48
2021/11/25 08:33:52;;;;;;;76.53;39.17;;;5.90;99.90;;;;;;4990795;28;20136;-47
2021/11/25 08:36:17;;;;;;;71.22;38.88;;;5.90;99.90;;;;;;4992397;28;20169;-48
2021/11/25 08:38:43;;;;;;;74.55;39.35;;;5.90;99.90;;;;;;4987681;28;20148;-48
2021/11/25 08:41:09;;;;;;;77.68;40.58;;;5.90;99.90;;;;;;4988529;28;20042;-48
2021/11/25 08:43:34;;;;;;;84.68;41.47;;;6.00;99.90;;;;;;4991741;28;20042;-47
2021/11/25 08:46:00;;;;;;;76.60;40.25;;;5.90;99.90;;;;;;4989751;28;20026;-47
2021/11/25 08:48:26;;;;;;;82.80;40.00;;;5.90;99.90;;;;;;4985559;28;20034;-49
2021/11/25 08:50:51;;;;;;;79.95;39.17;;;5.90;99.90;;;;;;4989892;28;20034;-49
2021/11/25 08:53:19;;;;;;;81.75;40.53;;;6.00;99.90;;;;;;4986058;28;20596;-49
2021/11/25 08:55:47;;;;;;;83.63;42.45;;;6.00;99.90;;;;;;4983766;28;20053;-47
2021/11/25 08:58:12;;;;;;;77.68;40.58;;;6.00;99.90;;;;;;4989125;28;20380;-51
2021/11/25 09:00:38;;;;;;;85.40;40.90;;;6.00;99.90;;;;;;4991170;28;20081;-47
2021/11/25 09:03:04;;;;;;;89.05;41.50;;;6.00;99.90;;;;;;4988893;28;20092;-47
2021/11/25 09:05:31;;;;;;;88.60;41.55;;;6.00;99.90;;;;;;4987835;28;20053;-47
2021/11/25 09:07:58;;;;;;;83.85;40.92;;;6.00;99.90;;;;;;4991698;28;20034;-48
2021/11/25 09:10:24;;;;;;;83.55;40.88;;;6.10;99.90;;;;;;4987557;28;20042;-48
2021/11/25 09:12:50;;;;;;;93.25;42.72;;;6.10;99.90;;;;;;4988227;28;20551;-48
2021/11/25 09:15:15;;;;;;;81.72;40.53;;;6.10;99.90;;;;;;4991093;28;20038;-48
2021/11/25 09:17:41;;;;;;;84.53;42.15;;;6.10;99.90;;;;;;4989620;28;20057;-51
2021/11/25 09:20:08;;;;;;;83.47;41.78;;;6.10;99.90;;;;;;4987171;28;20049;-50
2021/11/25 09:22:36;;;;;;;96.57;42.67;;;6.10;99.90;;;;;;4988228;28;20089;-49
2021/11/25 09:25:02;;;;;;;101.80;45.75;;;6.10;99.90;;;;;;4991453;28;20420;-47
2021/11/25 09:27:28;;;;;;;92.90;42.63;;;6.20;99.90;;;;;;4972398;28;20074;-49
2021/11/25 09:29:53;;;;;;;95.63;45.05;;;6.20;99.90;;;;;;4990367;28;20076;-50
2021/11/25 09:32:19;;;;;;;87.30;42.88;;;6.20;99.90;;;;;;4993285;28;20688;-47
2021/11/25 09:34:44;;;;;;;94.32;44.38;;;6.20;99.90;;;;;;4984857;28;20100;-47
2021/11/25 09:37:10;;;;;;;90.25;45.03;;;6.30;99.90;;;;;;4989193;28;20117;-47
2021/11/25 09:39:36;;;;;;;97.03;43.70;;;6.30;99.90;;;;;;4990416;28;20070;-51
2021/11/25 09:42:02;;;;;;;85.55;41.22;;;6.40;99.90;;;;;;4987682;28;20129;-49
2021/11/25 09:44:27;;;;;;;96.00;43.70;;;6.30;99.90;;;;;;4982420;28;20030;-47
2021/11/25 09:46:56;;;;;;;87.57;42.45;;;6.40;99.90;;;;;;4987965;28;20046;-48
2021/11/25 09:49:24;;;;;;;91.25;42.80;;;6.40;99.90;;;;;;4967714;28;20038;-47
2021/11/25 09:51:52;;;;;;;90.97;42.20;;;6.30;99.90;;;;;;4990806;28;20038;-47
2021/11/25 09:54:20;;;;;;;94.97;43.40;;;6.30;99.90;;;;;;4979554;28;20518;-51
2021/11/25 09:56:46;;;;;;;92.80;42.15;;;6.40;99.90;;;;;;4987787;28;20495;-47
2021/11/25 09:59:11;;;;;;;93.78;43.97;;;6.40;99.90;;;;;;4983453;28;20411;-48
2021/11/25 10:01:37;;;;;;;84.30;41.30;;;6.40;99.90;;;;;;4989707;28;20038;-47
2021/11/25 10:04:03;;;;;;;90.40;42.67;;;6.40;99.90;;;;;;4991566;28;20034;-49
2021/11/25 10:06:33;;;;;;;92.47;41.50;;;6.50;99.90;;;;;;4986453;28;20038;-51
2021/11/25 10:08:59;;;;;;;101.53;43.75;;;6.50;99.90;;;;;;4982105;28;20157;-48
2021/11/25 10:11:34;;;;;;;89.22;42.78;;;6.60;99.90;;;;;;4987354;28;20048;-51
2021/11/25 10:14:08;;;;;;;97.43;44.83;;;6.60;99.90;;;;;;4990265;28;20121;-49
2021/11/25 10:16:42;;;;;;;97.95;43.08;;;6.70;99.90;;;;;;4990306;28;20054;-49
2021/11/25 10:19:23;;;;;;;98.00;42.33;;;6.70;99.90;;;;;;4990385;28;20057;-48
2021/11/25 10:21:53;;;;;;;90.53;42.83;;;6.70;99.90;;;;;;4960465;28;20054;-51
2021/11/25 10:24:40;;;;;;;94.28;41.90;;;6.80;99.90;;;;;;4994734;28;20556;-50
2021/11/25 10:27:26;;;;;;;92.50;42.50;;;6.90;99.90;;;;;;4980354;28;20042;-49
2021/11/25 10:30:17;;;;;;;97.30;42.65;;;7.00;99.90;;;;;;4991123;28;20073;-51
2021/11/25 10:32:57;;;;;;;91.18;41.30;;;7.10;99.90;;;;;;4988204;28;20513;-51
2021/11/25 10:35:29;;;;;;;92.38;40.45;;;7.10;99.90;;;;;;4983826;28;20045;-48
2021/11/25 10:40:33;;;;;;;95.32;39.85;;;7.20;99.90;;;;;;4987424;28;20050;-49
2021/11/25 10:43:14;;;;;;;92.32;38.72;;;7.20;99.90;;;;;;4991170;28;20043;-51
2021/11/25 10:45:44;;;;;;;86.45;38.67;;;7.30;99.90;;;;;;4989369;28;20069;-50
2021/11/25 10:48:10;;;;;;;81.40;36.65;;;7.30;99.90;;;;;;4986732;28;20092;-49
2021/11/25 10:50:35;;;;;;;88.95;37.28;;;7.30;99.90;;;;;;4989500;28;20663;-50
2021/11/25 10:53:08;;;;;;;75.90;34.50;;;7.30;99.90;;;;;;4990269;28;20089;-48
2021/11/25 10:55:35;;;;;;;82.43;36.22;;;7.40;99.90;;;;;;4989227;28;20053;-48
2021/11/25 10:58:02;;;;;;;90.55;36.13;;;7.40;99.90;;;;;;4990542;28;20049;-50
2021/11/25 11:00:36;;;;;;;80.13;36.05;;;7.40;99.90;;;;;;4992018;28;20042;-47
2021/11/25 11:03:22;;;;;;;78.28;35.25;;;7.50;99.90;;;;;;4992087;28;20034;-50
2021/11/25 11:05:57;;;;;;;76.82;33.15;;;7.60;99.90;;;;;;4991519;28;20437;-47
2021/11/25 11:08:31;;;;;;;65.45;30.52;;;7.60;99.90;;;;;;4989696;28;20038;-48
2021/11/25 11:11:07;;;;;;;65.05;28.65;;;7.80;99.90;;;;;;4990055;28;20635;-48
2021/11/25 11:13:43;;;;;;;59.72;26.85;;;7.80;99.90;;;;;;4991442;28;20046;-47
2021/11/25 11:16:25;;;;;;;58.50;25.80;;;7.90;99.90;;;;;;4994001;28;20439;-48
2021/11/25 11:18:56;;;;;;;56.90;24.70;;;8.00;99.90;;;;;;4988413;28;20066;-50
2021/11/25 11:21:28;;;;;;;51.55;23.13;;;8.00;99.90;;;;;;4987010;28;20043;-48
2021/11/25 11:23:54;;;;;;;;;;;8.10;99.90;;;;;;4992675;28;20042;-48
2021/11/25 11:26:20;;;;;;;46.75;21.48;;;8.10;99.90;;;;;;4994496;28;19917;-48
2021/11/25 11:28:45;;;;;;;42.75;21.98;;;8.10;99.90;;;;;;4991244;28;20398;-47
2021/11/25 11:31:11;;;;;;;43.05;20.95;;;8.10;99.90;;;;;;4993573;28;20045;-48
2021/11/25 11:33:37;;;;;;;39.08;17.73;;;8.20;99.90;;;;;;4991058;28;20038;-50
2021/11/25 11:36:03;;;;;;;35.53;16.70;;;8.20;99.90;;;;;;4992342;28;20514;-49
2021/11/25 11:38:31;;;;;;;35.55;15.13;;;8.20;99.90;;;;;;4979997;28;20392;-47
2021/11/25 11:40:58;;;;;;;28.85;13.68;;;8.30;99.90;;;;;;4962278;28;20347;-47
2021/11/25 11:43:24;;;;;;;28.88;12.05;;;8.30;99.90;;;;;;4982546;28;20042;-48
2021/11/25 11:45:51;;;;;;;22.30;8.30;;;8.40;99.90;;;;;;4986250;28;20491;-49
2021/11/25 11:48:17;;;;;;;17.30;6.43;;;8.40;99.90;;;;;;4972423;28;20141;-48
2021/11/25 11:50:53;;;;;;;12.18;4.82;;;8.50;99.90;;;;;;4988224;28;20117;-51
2021/11/25 11:53:22;;;;;;;20.02;5.38;;;8.50;99.90;;;;;;4988808;28;20116;-48
2021/11/25 11:56:01;;;;;;;14.15;3.70;;;8.50;99.90;;;;;;4987206;28;20562;-49
2021/11/25 11:58:41;;;;;;;11.25;3.13;;;8.50;99.90;;;;;;4980635;28;20487;-50
2021/11/25 12:01:19;;;;;;;13.82;3.28;;;8.50;99.90;;;;;;4986785;28;20070;-47
2021/11/25 12:03:48;;;;;;;12.63;2.40;;;8.50;99.90;;;;;;4987955;28;20038;-47
2021/11/25 12:06:35;;;;;;;12.98;2.95;;;8.60;99.90;;;;;;4993470;28;20034;-51
2021/11/25 12:09:14;;;;;;;13.55;3.08;;;8.60;99.90;;;;;;4989217;28;20043;-47
2021/11/25 12:11:48;;;;;;;13.48;2.28;;;8.70;99.90;;;;;;4983014;28;20581;-50
2021/11/25 12:14:22;;;;;;;9.25;2.03;;;8.70;99.90;;;;;;4975985;28;20142;-47
2021/11/25 12:16:50;;;;;;;11.48;2.33;;;8.80;99.90;;;;;;4985041;28;20038;-48
2021/11/25 12:19:27;;;;;;;7.75;2.22;;;8.70;99.90;;;;;;4981813;28;20035;-47
2021/11/25 12:21:55;;;;;;;12.75;1.63;;;8.70;99.90;;;;;;4992762;28;20482;-47
2021/11/25 12:24:58;;;;;;;8.63;1.80;;;8.70;99.90;;;;;;4979488;28;20038;-48
2021/11/25 12:27:28;;;;;;;10.23;1.77;;;8.70;99.90;;;;;;4983197;28;20047;-48
2021/11/25 12:29:55;;;;;;;8.90;2.00;;;8.70;99.90;;;;;;4975376;28;20062;-47
2021/11/25 12:32:37;;;;;;;9.82;1.48;;;8.60;99.90;;;;;;4984364;28;20046;-47
2021/11/25 12:35:39;;;;;;;14.63;2.38;;;8.60;99.90;;;;;;4975825;28;20565;-47
2021/11/25 12:38:12;;;;;;;15.43;2.17;;;8.60;99.90;;;;;;4987746;28;20031;-47
2021/11/25 12:40:41;;;;;;;15.10;1.80;;;8.50;99.90;;;;;;4984144;28;20046;-47
2021/11/25 12:43:18;;;;;;;13.00;1.90;;;8.60;99.90;;;;;;4986011;28;20128;-49
2021/11/25 12:45:48;;;;;;;9.45;1.95;;;8.60;99.90;;;;;;4965422;28;20064;-47
2021/11/25 12:48:20;;;;;;;10.30;1.85;;;8.60;99.90;;;;;;4986108;28;20411;-48